HAZ6332 ZSHC-ZSAM
Flight info
| Callsign | HAZ6332 |
|---|---|
| Flight time | 1h 9m |
| Altitude | 26600 |
| Route | UGAGO A470 ENVEN |
| Aircraft | A20N/M-SD1T1E2E3FGILRWXY/LB1D1 |
Departure
| Time | 2026-05-08 15:12 |
|---|---|
| Airport | Hangzhou Xiaoshan International Airport (ZSHC) |
Arrival
| Time | 2026-05-08 16:22 |
|---|---|
| Airport | Xiamen Gaoqi International Airport (ZSAM) |
| Time | Latitude | Longitude | Altitude | Speed | Heading |
|---|---|---|---|---|---|
| 2026-05-08 14:51 | 30.24123 | 120.42808 | 29 ft | 0 kts | 231° |
| 2026-05-08 14:59 | 30.24126 | 120.42811 | 29 ft | 2 kts | 232° |
| 2026-05-08 14:59 | 30.24134 | 120.42844 | 29 ft | 2 kts | 274° |
| 2026-05-08 14:59 | 30.24131 | 120.42861 | 29 ft | 2 kts | 291° |
| 2026-05-08 15:00 | 30.24124 | 120.42876 | 29 ft | 2 kts | 309° |
| 2026-05-08 15:00 | 30.24113 | 120.42889 | 29 ft | 1 kts | 328° |
| 2026-05-08 15:00 | 30.24106 | 120.42893 | 29 ft | 0 kts | 335° |
| 2026-05-08 15:04 | 30.24107 | 120.42892 | 29 ft | 0 kts | 335° |
| 2026-05-08 15:04 | 30.24116 | 120.42887 | 28 ft | 2 kts | 335° |
| 2026-05-08 15:04 | 30.24133 | 120.42878 | 28 ft | 3 kts | 333° |
| 2026-05-08 15:04 | 30.24159 | 120.42863 | 28 ft | 4 kts | 333° |
| 2026-05-08 15:05 | 30.24194 | 120.42842 | 28 ft | 6 kts | 333° |
| 2026-05-08 15:05 | 30.24236 | 120.42817 | 28 ft | 7 kts | 332° |
| 2026-05-08 15:05 | 30.24279 | 120.42776 | 29 ft | 8 kts | 291° |
| 2026-05-08 15:05 | 30.24266 | 120.42710 | 28 ft | 9 kts | 240° |
| 2026-05-08 15:06 | 30.24230 | 120.42639 | 28 ft | 10 kts | 240° |
| 2026-05-08 15:06 | 30.24199 | 120.42568 | 28 ft | 10 kts | 244° |
| 2026-05-08 15:06 | 30.24193 | 120.42489 | 29 ft | 10 kts | 302° |
| 2026-05-08 15:06 | 30.24258 | 120.42441 | 28 ft | 11 kts | 333° |
| 2026-05-08 15:07 | 30.24305 | 120.42370 | 28 ft | 12 kts | 261° |
| 2026-05-08 15:07 | 30.24270 | 120.42276 | 29 ft | 13 kts | 242° |
| 2026-05-08 15:07 | 30.24225 | 120.42181 | 28 ft | 13 kts | 243° |
| 2026-05-08 15:07 | 30.24180 | 120.42077 | 28 ft | 15 kts | 243° |
| 2026-05-08 15:08 | 30.24129 | 120.41962 | 29 ft | 16 kts | 242° |
| 2026-05-08 15:08 | 30.24096 | 120.41889 | 29 ft | 13 kts | 242° |
| 2026-05-08 15:08 | 30.24033 | 120.41750 | 28 ft | 15 kts | 242° |
| 2026-05-08 15:08 | 30.23983 | 120.41635 | 29 ft | 14 kts | 243° |
| 2026-05-08 15:09 | 30.23940 | 120.41537 | 29 ft | 13 kts | 243° |
| 2026-05-08 15:09 | 30.23896 | 120.41440 | 29 ft | 14 kts | 242° |
| 2026-05-08 15:09 | 30.23861 | 120.41361 | 29 ft | 11 kts | 242° |
| 2026-05-08 15:09 | 30.23823 | 120.41273 | 29 ft | 13 kts | 243° |
| 2026-05-08 15:10 | 30.23779 | 120.41173 | 28 ft | 14 kts | 243° |
| 2026-05-08 15:10 | 30.23730 | 120.41062 | 29 ft | 16 kts | 242° |
| 2026-05-08 15:10 | 30.23692 | 120.40945 | 28 ft | 15 kts | 283° |
| 2026-05-08 15:10 | 30.23779 | 120.40870 | 28 ft | 16 kts | 340° |
| 2026-05-08 15:11 | 30.23854 | 120.40920 | 28 ft | 13 kts | 58° |
| 2026-05-08 15:11 | 30.23917 | 120.41052 | 29 ft | 40 kts | 63° |
| 2026-05-08 15:11 | 30.24170 | 120.41618 | 29 ft | 114 kts | 62° |
| 2026-05-08 15:11 | 30.24630 | 120.42650 | 64 ft | 169 kts | 63° |
| 2026-05-08 15:12 | 30.25188 | 120.43894 | 583 ft | 180 kts | 64° |
| 2026-05-08 15:12 | 30.25770 | 120.45238 | 1097 ft | 196 kts | 65° |
| 2026-05-08 15:12 | 30.26368 | 120.46713 | 1746 ft | 206 kts | 65° |
| 2026-05-08 15:12 | 30.27035 | 120.48241 | 2417 ft | 217 kts | 64° |
| 2026-05-08 15:13 | 30.27712 | 120.49746 | 2989 ft | 216 kts | 64° |
| 2026-05-08 15:13 | 30.28420 | 120.51281 | 3522 ft | 218 kts | 64° |
| 2026-05-08 15:13 | 30.29130 | 120.52832 | 4047 ft | 219 kts | 64° |
| 2026-05-08 15:13 | 30.29841 | 120.54414 | 4454 ft | 222 kts | 64° |
| 2026-05-08 15:14 | 30.30560 | 120.56029 | 4840 ft | 224 kts | 64° |
| 2026-05-08 15:14 | 30.31266 | 120.57618 | 5213 ft | 225 kts | 64° |
| 2026-05-08 15:14 | 30.31991 | 120.59256 | 5600 ft | 227 kts | 64° |
| 2026-05-08 15:14 | 30.32905 | 120.60749 | 5964 ft | 230 kts | 41° |
| 2026-05-08 15:15 | 30.34326 | 120.61627 | 6340 ft | 236 kts | 15° |
| 2026-05-08 15:15 | 30.35964 | 120.61696 | 6704 ft | 243 kts | 349° |
| 2026-05-08 15:15 | 30.37516 | 120.60881 | 7060 ft | 248 kts | 321° |
| 2026-05-08 15:15 | 30.38590 | 120.59304 | 7435 ft | 252 kts | 292° |
| 2026-05-08 15:16 | 30.38909 | 120.57318 | 7804 ft | 253 kts | 264° |
| 2026-05-08 15:16 | 30.38454 | 120.55342 | 8188 ft | 254 kts | 245° |
| 2026-05-08 15:16 | 30.37648 | 120.53512 | 8554 ft | 256 kts | 240° |
| 2026-05-08 15:16 | 30.36789 | 120.51718 | 8895 ft | 257 kts | 241° |
| 2026-05-08 15:17 | 30.35926 | 120.49867 | 9262 ft | 267 kts | 243° |
| 2026-05-08 15:17 | 30.35034 | 120.47884 | 9662 ft | 287 kts | 243° |
| 2026-05-08 15:17 | 30.34090 | 120.45753 | 10034 ft | 304 kts | 243° |
| 2026-05-08 15:17 | 30.33123 | 120.43574 | 10392 ft | 310 kts | 244° |
| 2026-05-08 15:18 | 30.32130 | 120.41338 | 10765 ft | 312 kts | 244° |
| 2026-05-08 15:18 | 30.31126 | 120.39075 | 11128 ft | 314 kts | 244° |
| 2026-05-08 15:18 | 30.30130 | 120.36832 | 11490 ft | 316 kts | 244° |
| 2026-05-08 15:18 | 30.29118 | 120.34553 | 11860 ft | 317 kts | 244° |
| 2026-05-08 15:19 | 30.28105 | 120.32271 | 12263 ft | 319 kts | 244° |
| 2026-05-08 15:19 | 30.27093 | 120.29988 | 12612 ft | 321 kts | 244° |
| 2026-05-08 15:19 | 30.26069 | 120.27686 | 12965 ft | 323 kts | 245° |
| 2026-05-08 15:19 | 30.25037 | 120.25365 | 13357 ft | 324 kts | 245° |
| 2026-05-08 15:20 | 30.24001 | 120.23035 | 13746 ft | 326 kts | 245° |
| 2026-05-08 15:20 | 30.22957 | 120.20683 | 14130 ft | 327 kts | 245° |
| 2026-05-08 15:20 | 30.21919 | 120.18352 | 14485 ft | 326 kts | 245° |
| 2026-05-08 15:20 | 30.20881 | 120.16018 | 14833 ft | 325 kts | 245° |
| 2026-05-08 15:21 | 30.19829 | 120.13657 | 15238 ft | 336 kts | 245° |
| 2026-05-08 15:21 | 30.18729 | 120.11194 | 15738 ft | 344 kts | 245° |
| 2026-05-08 15:21 | 30.17616 | 120.08709 | 16212 ft | 353 kts | 245° |
| 2026-05-08 15:21 | 30.16488 | 120.06192 | 16678 ft | 360 kts | 245° |
| 2026-05-08 15:22 | 30.15321 | 120.03590 | 17137 ft | 366 kts | 245° |
| 2026-05-08 15:22 | 30.14141 | 120.00960 | 17597 ft | 369 kts | 244° |
| 2026-05-08 15:22 | 30.12952 | 119.98315 | 18060 ft | 369 kts | 245° |
| 2026-05-08 15:22 | 30.11766 | 119.95679 | 18529 ft | 370 kts | 245° |
| 2026-05-08 15:23 | 30.10576 | 119.93034 | 18997 ft | 371 kts | 245° |
| 2026-05-08 15:23 | 30.09385 | 119.90385 | 19458 ft | 373 kts | 245° |
| 2026-05-08 15:23 | 30.08191 | 119.87730 | 19918 ft | 373 kts | 245° |
| 2026-05-08 15:23 | 30.06992 | 119.85062 | 20379 ft | 375 kts | 245° |
| 2026-05-08 15:24 | 30.05788 | 119.82390 | 20831 ft | 376 kts | 245° |
| 2026-05-08 15:24 | 30.04457 | 119.79745 | 21293 ft | 380 kts | 238° |
| 2026-05-08 15:24 | 30.02696 | 119.77469 | 21753 ft | 387 kts | 227° |
| 2026-05-08 15:24 | 30.00514 | 119.75604 | 22207 ft | 396 kts | 216° |
| 2026-05-08 15:25 | 29.98055 | 119.74063 | 22672 ft | 399 kts | 214° |
| 2026-05-08 15:25 | 29.95587 | 119.72568 | 23148 ft | 401 kts | 214° |
| 2026-05-08 15:25 | 29.93114 | 119.71074 | 23620 ft | 403 kts | 214° |
| 2026-05-08 15:25 | 29.90625 | 119.69569 | 24106 ft | 404 kts | 214° |
| 2026-05-08 15:26 | 29.88067 | 119.68099 | 24614 ft | 409 kts | 210° |
| 2026-05-08 15:26 | 29.85342 | 119.67025 | 25112 ft | 417 kts | 202° |
| 2026-05-08 15:26 | 29.82492 | 119.66399 | 25579 ft | 427 kts | 194° |
| 2026-05-08 15:26 | 29.79435 | 119.66142 | 25779 ft | 437 kts | 190° |
| 2026-05-08 15:27 | 29.76383 | 119.65987 | 25769 ft | 439 kts | 190° |
| 2026-05-08 15:27 | 29.73345 | 119.65818 | 25780 ft | 438 kts | 191° |
| 2026-05-08 15:27 | 29.70276 | 119.65613 | 25780 ft | 438 kts | 191° |
| 2026-05-08 15:27 | 29.67217 | 119.65396 | 25779 ft | 438 kts | 191° |
| 2026-05-08 15:28 | 29.64160 | 119.65181 | 25781 ft | 437 kts | 191° |
| 2026-05-08 15:28 | 29.61103 | 119.65041 | 25779 ft | 440 kts | 188° |
| 2026-05-08 15:28 | 29.58032 | 119.64963 | 25785 ft | 440 kts | 188° |
| 2026-05-08 15:28 | 29.54976 | 119.64887 | 25781 ft | 439 kts | 189° |
| 2026-05-08 15:29 | 29.51903 | 119.64747 | 25780 ft | 439 kts | 190° |
| 2026-05-08 15:29 | 29.48865 | 119.64555 | 25781 ft | 438 kts | 191° |
| 2026-05-08 15:29 | 29.45799 | 119.64353 | 25781 ft | 438 kts | 190° |
| 2026-05-08 15:29 | 29.42744 | 119.64154 | 25782 ft | 439 kts | 190° |
| 2026-05-08 15:30 | 29.39659 | 119.63957 | 25782 ft | 439 kts | 190° |
| 2026-05-08 15:30 | 29.36617 | 119.63768 | 25782 ft | 439 kts | 190° |
| 2026-05-08 15:30 | 29.33529 | 119.63577 | 25782 ft | 438 kts | 190° |
| 2026-05-08 15:30 | 29.30458 | 119.63388 | 25782 ft | 440 kts | 190° |
| 2026-05-08 15:31 | 29.27416 | 119.63201 | 25783 ft | 440 kts | 190° |
| 2026-05-08 15:31 | 29.24342 | 119.63013 | 25782 ft | 440 kts | 190° |
| 2026-05-08 15:31 | 29.21253 | 119.62825 | 25784 ft | 439 kts | 190° |
| 2026-05-08 15:31 | 29.18219 | 119.62640 | 25782 ft | 439 kts | 190° |
| 2026-05-08 15:32 | 29.15173 | 119.62453 | 25782 ft | 439 kts | 190° |
| 2026-05-08 15:32 | 29.12087 | 119.62264 | 25783 ft | 440 kts | 190° |
| 2026-05-08 15:32 | 29.09021 | 119.62077 | 25783 ft | 442 kts | 190° |
| 2026-05-08 15:32 | 29.05870 | 119.61878 | 25783 ft | 454 kts | 190° |
| 2026-05-08 15:33 | 29.02665 | 119.61671 | 25781 ft | 465 kts | 190° |
| 2026-05-08 15:33 | 28.99421 | 119.61465 | 25779 ft | 475 kts | 189° |
| 2026-05-08 15:33 | 28.96057 | 119.61255 | 25778 ft | 480 kts | 189° |
| 2026-05-08 15:33 | 28.92701 | 119.61050 | 25783 ft | 480 kts | 189° |
| 2026-05-08 15:34 | 28.89373 | 119.60847 | 25777 ft | 481 kts | 189° |
| 2026-05-08 15:34 | 28.85986 | 119.60640 | 25778 ft | 481 kts | 189° |
| 2026-05-08 15:34 | 28.82649 | 119.60439 | 25773 ft | 481 kts | 189° |
| 2026-05-08 15:34 | 28.79267 | 119.60233 | 25772 ft | 481 kts | 189° |
| 2026-05-08 15:35 | 28.75922 | 119.60027 | 25770 ft | 481 kts | 189° |
| 2026-05-08 15:35 | 28.72593 | 119.59822 | 25770 ft | 481 kts | 189° |
| 2026-05-08 15:35 | 28.69239 | 119.59615 | 25771 ft | 481 kts | 189° |
| 2026-05-08 15:35 | 28.65849 | 119.59405 | 25768 ft | 482 kts | 189° |
| 2026-05-08 15:36 | 28.62479 | 119.59196 | 25766 ft | 482 kts | 190° |
| 2026-05-08 15:36 | 28.60265 | 119.59058 | 25765 ft | 483 kts | 190° |
| 2026-05-08 15:36 | 28.55765 | 119.58778 | 25771 ft | 482 kts | 189° |
| 2026-05-08 15:36 | 28.52421 | 119.58570 | 25772 ft | 482 kts | 189° |
| 2026-05-08 15:37 | 28.49053 | 119.58362 | 25770 ft | 482 kts | 189° |
| 2026-05-08 15:37 | 28.45690 | 119.58156 | 25769 ft | 482 kts | 189° |
| 2026-05-08 15:37 | 28.42293 | 119.57959 | 25769 ft | 483 kts | 189° |
| 2026-05-08 15:37 | 28.38904 | 119.57772 | 25766 ft | 483 kts | 189° |
| 2026-05-08 15:38 | 28.35571 | 119.57590 | 25770 ft | 484 kts | 189° |
| 2026-05-08 15:38 | 28.32163 | 119.57404 | 25769 ft | 483 kts | 189° |
| 2026-05-08 15:38 | 28.28809 | 119.57219 | 25765 ft | 483 kts | 189° |
| 2026-05-08 15:38 | 28.25448 | 119.57034 | 25764 ft | 484 kts | 189° |
| 2026-05-08 15:39 | 28.22062 | 119.56847 | 25762 ft | 484 kts | 189° |
| 2026-05-08 15:39 | 28.18679 | 119.56659 | 25763 ft | 484 kts | 189° |
| 2026-05-08 15:39 | 28.15279 | 119.56471 | 25762 ft | 484 kts | 189° |
| 2026-05-08 15:39 | 28.11938 | 119.56286 | 25763 ft | 484 kts | 189° |
| 2026-05-08 15:40 | 28.08535 | 119.56164 | 25755 ft | 486 kts | 187° |
| 2026-05-08 15:40 | 28.05152 | 119.56109 | 25757 ft | 487 kts | 187° |
| 2026-05-08 15:40 | 28.01730 | 119.56057 | 25760 ft | 486 kts | 187° |
| 2026-05-08 15:40 | 27.98319 | 119.56005 | 25761 ft | 486 kts | 187° |
| 2026-05-08 15:41 | 27.94951 | 119.55953 | 25759 ft | 486 kts | 188° |
| 2026-05-08 15:41 | 27.91570 | 119.55903 | 25758 ft | 486 kts | 187° |
| 2026-05-08 15:41 | 27.88132 | 119.55874 | 25760 ft | 487 kts | 187° |
| 2026-05-08 15:41 | 27.84738 | 119.55859 | 25761 ft | 487 kts | 187° |
| 2026-05-08 15:42 | 27.81315 | 119.55845 | 25760 ft | 488 kts | 187° |
| 2026-05-08 15:42 | 27.77922 | 119.55830 | 25756 ft | 488 kts | 187° |
| 2026-05-08 15:42 | 27.74510 | 119.55814 | 25760 ft | 487 kts | 187° |
| 2026-05-08 15:42 | 27.71104 | 119.55795 | 25757 ft | 487 kts | 187° |
| 2026-05-08 15:43 | 27.67695 | 119.55777 | 25759 ft | 488 kts | 187° |
| 2026-05-08 15:43 | 27.64256 | 119.55756 | 25758 ft | 489 kts | 187° |
| 2026-05-08 15:43 | 27.60867 | 119.55737 | 25755 ft | 489 kts | 187° |
| 2026-05-08 15:43 | 27.57426 | 119.55716 | 25754 ft | 490 kts | 187° |
| 2026-05-08 15:44 | 27.54043 | 119.55697 | 25760 ft | 490 kts | 187° |
| 2026-05-08 15:44 | 27.50608 | 119.55676 | 25757 ft | 489 kts | 187° |
| 2026-05-08 15:44 | 27.47174 | 119.55656 | 25758 ft | 490 kts | 187° |
| 2026-05-08 15:44 | 27.43746 | 119.55637 | 25755 ft | 490 kts | 187° |
| 2026-05-08 15:45 | 27.40326 | 119.55624 | 25758 ft | 491 kts | 187° |
| 2026-05-08 15:45 | 27.36917 | 119.55618 | 25758 ft | 491 kts | 187° |
| 2026-05-08 15:45 | 27.33491 | 119.55615 | 25761 ft | 491 kts | 187° |
| 2026-05-08 15:45 | 27.30055 | 119.55611 | 25764 ft | 491 kts | 187° |
| 2026-05-08 15:46 | 27.26620 | 119.55606 | 25762 ft | 491 kts | 187° |
| 2026-05-08 15:46 | 27.23194 | 119.55595 | 25763 ft | 491 kts | 187° |
| 2026-05-08 15:46 | 27.19750 | 119.55573 | 25764 ft | 491 kts | 187° |
| 2026-05-08 15:46 | 27.16284 | 119.55549 | 25759 ft | 492 kts | 187° |
| 2026-05-08 15:47 | 27.12878 | 119.55525 | 25759 ft | 492 kts | 187° |
| 2026-05-08 15:47 | 27.09436 | 119.55502 | 25730 ft | 492 kts | 187° |
| 2026-05-08 15:47 | 27.05994 | 119.55479 | 25469 ft | 492 kts | 187° |
| 2026-05-08 15:47 | 27.02545 | 119.55456 | 25223 ft | 492 kts | 187° |
| 2026-05-08 15:48 | 26.95673 | 119.55409 | 24732 ft | 492 kts | 187° |
| 2026-05-08 15:48 | 26.92256 | 119.55386 | 24485 ft | 493 kts | 187° |
| 2026-05-08 15:48 | 26.88812 | 119.55364 | 24243 ft | 493 kts | 187° |
| 2026-05-08 15:49 | 26.85306 | 119.55344 | 23996 ft | 493 kts | 187° |
| 2026-05-08 15:49 | 26.81878 | 119.55323 | 23754 ft | 493 kts | 187° |
| 2026-05-08 15:49 | 26.78600 | 119.55302 | 23532 ft | 493 kts | 186° |
| 2026-05-08 15:49 | 26.75120 | 119.55282 | 23352 ft | 492 kts | 186° |
| 2026-05-08 15:50 | 26.71688 | 119.55261 | 23163 ft | 488 kts | 186° |
| 2026-05-08 15:50 | 26.68325 | 119.55247 | 22924 ft | 470 kts | 186° |
| 2026-05-08 15:50 | 26.65075 | 119.55230 | 22699 ft | 467 kts | 186° |
| 2026-05-08 15:50 | 26.61869 | 119.54946 | 22441 ft | 455 kts | 199° |
| 2026-05-08 15:51 | 26.58943 | 119.53734 | 22236 ft | 445 kts | 210° |
| 2026-05-08 15:51 | 26.56118 | 119.52250 | 22002 ft | 443 kts | 211° |
| 2026-05-08 15:51 | 26.53346 | 119.50767 | 21773 ft | 442 kts | 211° |
| 2026-05-08 15:51 | 26.50518 | 119.49279 | 21537 ft | 442 kts | 210° |
| 2026-05-08 15:52 | 26.47737 | 119.47844 | 21308 ft | 441 kts | 210° |
| 2026-05-08 15:52 | 26.44951 | 119.46428 | 21082 ft | 440 kts | 210° |
| 2026-05-08 15:52 | 26.42164 | 119.45024 | 20853 ft | 439 kts | 209° |
| 2026-05-08 15:52 | 26.39346 | 119.43613 | 20619 ft | 439 kts | 209° |
| 2026-05-08 15:53 | 26.36559 | 119.42225 | 20395 ft | 438 kts | 209° |
| 2026-05-08 15:53 | 26.33759 | 119.40834 | 20170 ft | 436 kts | 209° |
| 2026-05-08 15:53 | 26.31006 | 119.39468 | 19947 ft | 435 kts | 208° |
| 2026-05-08 15:53 | 26.28214 | 119.38083 | 19718 ft | 434 kts | 208° |
| 2026-05-08 15:54 | 26.25442 | 119.36710 | 19492 ft | 433 kts | 208° |
| 2026-05-08 15:54 | 26.22699 | 119.35353 | 19270 ft | 432 kts | 208° |
| 2026-05-08 15:54 | 26.19909 | 119.33968 | 19037 ft | 430 kts | 208° |
| 2026-05-08 15:54 | 26.17193 | 119.32612 | 18803 ft | 429 kts | 208° |
| 2026-05-08 15:55 | 26.14462 | 119.31250 | 18567 ft | 427 kts | 208° |
| 2026-05-08 15:55 | 26.09019 | 119.28549 | 18096 ft | 424 kts | 208° |
| 2026-05-08 15:55 | 26.06322 | 119.27216 | 17897 ft | 423 kts | 207° |
| 2026-05-08 15:56 | 26.03628 | 119.25886 | 17859 ft | 423 kts | 207° |
| 2026-05-08 15:56 | 26.00919 | 119.24551 | 17850 ft | 424 kts | 207° |
| 2026-05-08 15:56 | 25.98199 | 119.23211 | 17851 ft | 424 kts | 207° |
| 2026-05-08 15:56 | 25.95509 | 119.21887 | 17854 ft | 424 kts | 207° |
| 2026-05-08 15:57 | 25.92767 | 119.20539 | 17853 ft | 424 kts | 207° |
| 2026-05-08 15:57 | 25.90057 | 119.19206 | 17855 ft | 424 kts | 207° |
| 2026-05-08 15:57 | 25.87344 | 119.17879 | 17858 ft | 425 kts | 207° |
| 2026-05-08 15:57 | 25.84635 | 119.16557 | 17857 ft | 424 kts | 207° |
| 2026-05-08 15:58 | 25.81914 | 119.15228 | 17851 ft | 424 kts | 207° |
| 2026-05-08 15:58 | 25.79218 | 119.13909 | 17849 ft | 424 kts | 207° |
| 2026-05-08 15:58 | 25.76518 | 119.12588 | 17843 ft | 423 kts | 207° |
| 2026-05-08 15:58 | 25.73806 | 119.11260 | 17837 ft | 423 kts | 207° |
| 2026-05-08 15:59 | 25.71075 | 119.09924 | 17831 ft | 422 kts | 207° |
| 2026-05-08 15:59 | 25.68369 | 119.08598 | 17825 ft | 423 kts | 207° |
| 2026-05-08 15:59 | 25.65669 | 119.07277 | 17820 ft | 424 kts | 207° |
| 2026-05-08 15:59 | 25.62961 | 119.05952 | 17824 ft | 424 kts | 207° |
| 2026-05-08 16:00 | 25.60266 | 119.04635 | 17825 ft | 424 kts | 207° |
| 2026-05-08 16:00 | 25.57563 | 119.03313 | 17823 ft | 424 kts | 207° |
| 2026-05-08 16:00 | 25.54836 | 119.01981 | 17821 ft | 424 kts | 207° |
| 2026-05-08 16:00 | 25.52129 | 119.00658 | 17815 ft | 424 kts | 207° |
| 2026-05-08 16:01 | 25.49408 | 118.99331 | 17814 ft | 425 kts | 207° |
| 2026-05-08 16:01 | 25.46705 | 118.98013 | 17807 ft | 424 kts | 207° |
| 2026-05-08 16:01 | 25.43975 | 118.96683 | 17802 ft | 425 kts | 207° |
| 2026-05-08 16:01 | 25.41276 | 118.95367 | 17797 ft | 425 kts | 207° |
| 2026-05-08 16:02 | 25.38553 | 118.94042 | 17792 ft | 424 kts | 207° |
| 2026-05-08 16:02 | 25.35932 | 118.92530 | 17796 ft | 421 kts | 215° |
| 2026-05-08 16:02 | 25.33536 | 118.90663 | 17798 ft | 418 kts | 222° |
| 2026-05-08 16:02 | 25.31402 | 118.88510 | 17799 ft | 415 kts | 229° |
| 2026-05-08 16:03 | 25.29430 | 118.86172 | 17800 ft | 415 kts | 230° |
| 2026-05-08 16:03 | 25.27489 | 118.83812 | 17795 ft | 415 kts | 230° |
| 2026-05-08 16:03 | 25.25542 | 118.81439 | 17796 ft | 415 kts | 230° |
| 2026-05-08 16:03 | 25.23578 | 118.79050 | 17788 ft | 416 kts | 230° |
| 2026-05-08 16:04 | 25.21620 | 118.76677 | 17793 ft | 416 kts | 230° |
| 2026-05-08 16:04 | 25.19682 | 118.74332 | 17796 ft | 415 kts | 230° |
| 2026-05-08 16:04 | 25.17706 | 118.71944 | 17798 ft | 416 kts | 230° |
| 2026-05-08 16:04 | 25.15750 | 118.69582 | 17799 ft | 415 kts | 230° |
| 2026-05-08 16:05 | 25.13821 | 118.67255 | 17793 ft | 415 kts | 230° |
| 2026-05-08 16:05 | 25.11847 | 118.64877 | 17793 ft | 416 kts | 230° |
| 2026-05-08 16:05 | 25.09894 | 118.62524 | 17788 ft | 416 kts | 230° |
| 2026-05-08 16:05 | 25.07916 | 118.60181 | 17733 ft | 416 kts | 229° |
| 2026-05-08 16:06 | 25.05932 | 118.57900 | 17489 ft | 408 kts | 229° |
| 2026-05-08 16:06 | 25.03963 | 118.55648 | 17246 ft | 406 kts | 229° |
| 2026-05-08 16:06 | 25.01977 | 118.53376 | 16995 ft | 405 kts | 229° |
| 2026-05-08 16:06 | 25.00028 | 118.51143 | 16764 ft | 404 kts | 229° |
| 2026-05-08 16:07 | 24.98071 | 118.48901 | 16518 ft | 403 kts | 229° |
| 2026-05-08 16:07 | 24.96129 | 118.46673 | 16285 ft | 402 kts | 229° |
| 2026-05-08 16:07 | 24.94189 | 118.44450 | 16045 ft | 401 kts | 228° |
| 2026-05-08 16:07 | 24.92271 | 118.42251 | 15828 ft | 400 kts | 229° |
| 2026-05-08 16:08 | 24.90345 | 118.40043 | 15581 ft | 399 kts | 229° |
| 2026-05-08 16:08 | 24.88398 | 118.37821 | 15350 ft | 398 kts | 229° |
| 2026-05-08 16:08 | 24.86466 | 118.35626 | 15102 ft | 397 kts | 229° |
| 2026-05-08 16:08 | 24.84537 | 118.33424 | 14871 ft | 391 kts | 228° |
| 2026-05-08 16:09 | 24.82691 | 118.31323 | 14628 ft | 378 kts | 228° |
| 2026-05-08 16:09 | 24.81477 | 118.29940 | 14469 ft | 369 kts | 229° |
| 2026-05-08 16:09 | 24.79159 | 118.27299 | 14152 ft | 354 kts | 228° |
| 2026-05-08 16:09 | 24.77454 | 118.25356 | 13911 ft | 343 kts | 229° |
| 2026-05-08 16:10 | 24.75833 | 118.23508 | 13676 ft | 333 kts | 229° |
| 2026-05-08 16:10 | 24.74221 | 118.21671 | 13431 ft | 324 kts | 229° |
| 2026-05-08 16:10 | 24.72678 | 118.19913 | 13204 ft | 315 kts | 229° |
| 2026-05-08 16:10 | 24.71174 | 118.18201 | 12977 ft | 307 kts | 229° |
| 2026-05-08 16:11 | 24.69696 | 118.16518 | 12739 ft | 299 kts | 229° |
| 2026-05-08 16:11 | 24.68253 | 118.14875 | 12465 ft | 294 kts | 229° |
| 2026-05-08 16:11 | 24.66839 | 118.13266 | 12181 ft | 289 kts | 229° |
| 2026-05-08 16:11 | 24.65460 | 118.11697 | 11904 ft | 284 kts | 229° |
| 2026-05-08 16:12 | 24.64073 | 118.10120 | 11377 ft | 287 kts | 229° |
| 2026-05-08 16:12 | 24.62687 | 118.08541 | 10836 ft | 286 kts | 228° |
| 2026-05-08 16:12 | 24.61312 | 118.06979 | 10377 ft | 282 kts | 228° |
| 2026-05-08 16:12 | 24.59956 | 118.05439 | 9926 ft | 280 kts | 228° |
| 2026-05-08 16:13 | 24.58598 | 118.03897 | 9461 ft | 277 kts | 228° |
| 2026-05-08 16:13 | 24.57258 | 118.02377 | 9007 ft | 275 kts | 227° |
| 2026-05-08 16:13 | 24.55946 | 118.00851 | 8544 ft | 272 kts | 229° |
| 2026-05-08 16:13 | 24.54693 | 117.99328 | 8088 ft | 271 kts | 229° |
| 2026-05-08 16:14 | 24.53421 | 117.97778 | 7596 ft | 266 kts | 229° |
| 2026-05-08 16:14 | 24.52197 | 117.96287 | 7114 ft | 263 kts | 229° |
| 2026-05-08 16:14 | 24.50973 | 117.94800 | 6629 ft | 261 kts | 229° |
| 2026-05-08 16:14 | 24.49759 | 117.93327 | 6307 ft | 256 kts | 229° |
| 2026-05-08 16:15 | 24.48571 | 117.91884 | 5966 ft | 254 kts | 229° |
| 2026-05-08 16:15 | 24.47371 | 117.90456 | 5616 ft | 252 kts | 223° |
| 2026-05-08 16:15 | 24.45852 | 117.89560 | 5240 ft | 250 kts | 186° |
| 2026-05-08 16:15 | 24.44168 | 117.89849 | 4883 ft | 243 kts | 148° |
| 2026-05-08 16:16 | 24.42893 | 117.91037 | 4544 ft | 238 kts | 131° |
| 2026-05-08 16:16 | 24.41764 | 117.92371 | 4173 ft | 237 kts | 125° |
| 2026-05-08 16:16 | 24.41185 | 117.93987 | 3823 ft | 229 kts | 86° |
| 2026-05-08 16:16 | 24.41699 | 117.95582 | 3556 ft | 221 kts | 51° |
| 2026-05-08 16:17 | 24.42729 | 117.96800 | 3321 ft | 217 kts | 46° |
| 2026-05-08 16:17 | 24.43421 | 117.97589 | 3137 ft | 213 kts | 47° |
| 2026-05-08 16:17 | 24.44690 | 117.99168 | 2791 ft | 199 kts | 51° |
| 2026-05-08 16:17 | 24.45549 | 118.00332 | 2533 ft | 189 kts | 52° |
| 2026-05-08 16:18 | 24.46342 | 118.01441 | 2296 ft | 178 kts | 52° |
| 2026-05-08 16:18 | 24.47061 | 118.02454 | 2157 ft | 158 kts | 52° |
| 2026-05-08 16:18 | 24.47707 | 118.03362 | 1942 ft | 142 kts | 52° |
| 2026-05-08 16:18 | 24.48291 | 118.04182 | 1726 ft | 128 kts | 52° |
| 2026-05-08 16:19 | 24.48815 | 118.04918 | 1516 ft | 119 kts | 51° |
| 2026-05-08 16:19 | 24.49330 | 118.05640 | 1368 ft | 119 kts | 52° |
| 2026-05-08 16:19 | 24.49843 | 118.06358 | 1218 ft | 120 kts | 51° |
| 2026-05-08 16:19 | 24.50368 | 118.07094 | 1066 ft | 120 kts | 51° |
| 2026-05-08 16:20 | 24.50884 | 118.07816 | 915 ft | 120 kts | 51° |
| 2026-05-08 16:20 | 24.51405 | 118.08546 | 751 ft | 121 kts | 52° |
| 2026-05-08 16:20 | 24.51934 | 118.09285 | 592 ft | 124 kts | 52° |
| 2026-05-08 16:20 | 24.52476 | 118.10044 | 422 ft | 127 kts | 53° |
| 2026-05-08 16:21 | 24.53031 | 118.10817 | 263 ft | 129 kts | 53° |
| 2026-05-08 16:21 | 24.53582 | 118.11593 | 100 ft | 130 kts | 53° |
| 2026-05-08 16:21 | 24.54097 | 118.12316 | 59 ft | 95 kts | 51° |
| 2026-05-08 16:21 | 24.54397 | 118.12743 | 49 ft | 52 kts | 53° |
| 2026-05-08 16:22 | 24.54517 | 118.12989 | 44 ft | 25 kts | 77° |
| 2026-05-08 16:22 | 24.54547 | 118.13168 | 44 ft | 22 kts | 79° |
| 2026-05-08 16:22 | 24.54602 | 118.13320 | 44 ft | 21 kts | 53° |
| 2026-05-08 16:22 | 24.54695 | 118.13451 | 41 ft | 22 kts | 52° |
| 2026-05-08 16:23 | 24.54698 | 118.13556 | 40 ft | 14 kts | 107° |
| 2026-05-08 16:23 | 24.54742 | 118.13652 | 38 ft | 15 kts | 50° |
| 2026-05-08 16:23 | 24.54787 | 118.13760 | 36 ft | 14 kts | 73° |
| 2026-05-08 16:23 | 24.54804 | 118.13863 | 33 ft | 10 kts | 75° |
| 2026-05-08 16:24 | 24.54813 | 118.13900 | 32 ft | 0 kts | 75° |